createdAt,value
2018-12-31T00:00:38.746Z,4.50
2018-12-31T00:03:26.276Z,5.07
2018-12-31T00:06:13.836Z,6.47
2018-12-31T00:09:02.358Z,5.83
2018-12-31T00:12:00.240Z,5.30
2018-12-31T00:14:47.938Z,5.60
2018-12-31T00:17:39.147Z,5.17
2018-12-31T00:20:26.638Z,5.63
2018-12-31T00:23:14.432Z,5.67
2018-12-31T00:26:03.933Z,5.80
2018-12-31T00:28:51.355Z,6.10
2018-12-31T00:31:38.750Z,7.40
2018-12-31T00:34:26.177Z,5.57
2018-12-31T00:37:13.707Z,5.93
2018-12-31T00:40:02.493Z,6.07
2018-12-31T00:42:48.982Z,5.17
2018-12-31T00:45:37.889Z,5.60
2018-12-31T00:48:26.232Z,4.90
2018-12-31T00:51:13.918Z,4.63
2018-12-31T00:54:00.978Z,4.87
2018-12-31T00:56:48.180Z,4.93
2018-12-31T00:59:35.494Z,5.20
2018-12-31T01:02:22.859Z,4.90
2018-12-31T01:05:10.384Z,5.57
2018-12-31T01:07:58.630Z,4.70
2018-12-31T01:10:46.044Z,5.57
2018-12-31T01:13:33.488Z,5.57
2018-12-31T01:16:26.496Z,4.70
2018-12-31T01:19:13.979Z,5.20
2018-12-31T01:22:09.640Z,5.23
2018-12-31T01:24:56.589Z,4.37
2018-12-31T01:27:43.651Z,5.43
2018-12-31T01:30:30.620Z,4.80
2018-12-31T01:33:30.753Z,5.03
2018-12-31T01:36:36.386Z,4.67
2018-12-31T01:39:40.225Z,4.97
2018-12-31T01:42:30.123Z,5.50
2018-12-31T01:45:17.268Z,6.10
2018-12-31T01:48:04.601Z,5.93
2018-12-31T01:50:52.121Z,5.87
2018-12-31T01:53:39.557Z,5.40
2018-12-31T01:56:26.850Z,5.30
2018-12-31T01:59:16.659Z,5.00
2018-12-31T02:02:06.609Z,7.00
2018-12-31T02:05:00.679Z,5.57
2018-12-31T02:07:54.065Z,5.60
2018-12-31T02:10:50.579Z,7.37
2018-12-31T02:13:41.298Z,6.37
2018-12-31T02:16:28.639Z,8.23
2018-12-31T02:19:17.687Z,5.97
2018-12-31T02:22:06.885Z,8.07
2018-12-31T02:24:57.045Z,6.90
2018-12-31T02:27:45.600Z,6.77
2018-12-31T02:30:34.707Z,6.97
2018-12-31T02:33:22.909Z,9.20
2018-12-31T02:36:24.138Z,8.27
2018-12-31T02:39:12.845Z,9.38
2018-12-31T02:42:00.396Z,7.93
2018-12-31T02:44:47.387Z,6.70
2018-12-31T02:47:36.910Z,6.97
2018-12-31T02:50:29.308Z,6.77
2018-12-31T02:53:17.775Z,7.13
2018-12-31T02:56:07.001Z,7.50
2018-12-31T02:58:58.594Z,6.83
2018-12-31T03:01:50.388Z,6.70
2018-12-31T03:04:39.623Z,6.77
2018-12-31T03:07:29.872Z,8.85
2018-12-31T03:10:19.240Z,6.87
2018-12-31T03:13:07.169Z,7.17
2018-12-31T03:15:54.413Z,7.40
2018-12-31T03:18:41.514Z,6.70
2018-12-31T03:24:02.675Z,8.95
2018-12-31T03:26:51.845Z,9.02
2018-12-31T03:29:39.638Z,7.33
2018-12-31T03:32:26.618Z,6.57
2018-12-31T03:35:15.116Z,6.70
2018-12-31T03:38:02.662Z,7.47
2018-12-31T03:40:50.345Z,6.90
2018-12-31T03:43:37.933Z,7.20
2018-12-31T03:46:25.835Z,6.90
2018-12-31T03:49:13.049Z,7.33
2018-12-31T03:55:08.404Z,7.13
2018-12-31T03:57:55.817Z,6.33
2018-12-31T04:00:43.092Z,7.10
2018-12-31T04:03:30.455Z,8.67
2018-12-31T04:06:18.049Z,6.93
2018-12-31T04:09:05.572Z,7.63
2018-12-31T04:11:53.139Z,6.73
2018-12-31T04:14:40.488Z,7.57
2018-12-31T04:17:28.895Z,7.37
2018-12-31T04:20:16.801Z,7.30
2018-12-31T04:23:04.420Z,9.48
2018-12-31T04:25:51.782Z,9.43
2018-12-31T04:28:39.489Z,7.50
2018-12-31T04:31:26.837Z,7.73
2018-12-31T04:34:13.924Z,8.07
2018-12-31T04:37:01.199Z,8.87
2018-12-31T04:39:48.877Z,8.93
2018-12-31T04:42:35.868Z,8.33
2018-12-31T04:48:32.717Z,9.40
2018-12-31T04:51:20.027Z,8.00
2018-12-31T04:54:07.186Z,11.57
2018-12-31T04:56:56.110Z,8.93
2018-12-31T04:59:43.095Z,9.43
2018-12-31T05:02:30.541Z,8.53
2018-12-31T05:05:17.894Z,9.50
2018-12-31T05:08:05.278Z,9.87
2018-12-31T05:10:52.433Z,9.37
2018-12-31T05:13:39.670Z,7.83
2018-12-31T05:16:26.870Z,7.97
2018-12-31T05:19:14.089Z,6.77
2018-12-31T05:22:01.187Z,9.00
2018-12-31T05:24:48.662Z,7.17
2018-12-31T05:27:36.192Z,6.17
2018-12-31T05:30:23.575Z,5.57
2018-12-31T05:33:11.299Z,5.23
2018-12-31T05:35:58.599Z,4.73
2018-12-31T05:38:46.655Z,5.33
2018-12-31T05:41:34.176Z,7.22
2018-12-31T05:44:21.699Z,5.87
2018-12-31T05:47:09.334Z,6.17
2018-12-31T05:49:56.513Z,5.33
2018-12-31T05:52:43.737Z,5.10
2018-12-31T05:55:31.185Z,5.03
2018-12-31T05:58:18.804Z,5.00
2018-12-31T06:01:06.223Z,4.27
2018-12-31T06:03:53.318Z,4.27
2018-12-31T06:06:40.787Z,4.95
2018-12-31T06:09:27.966Z,5.20
2018-12-31T06:12:15.590Z,4.20
2018-12-31T06:15:03.033Z,3.40
2018-12-31T06:17:50.631Z,3.37
2018-12-31T06:20:38.095Z,3.40
2018-12-31T06:23:25.565Z,4.40
2018-12-31T06:26:14.270Z,3.50
2018-12-31T06:29:01.705Z,3.47
2018-12-31T06:34:56.626Z,3.13
2018-12-31T06:37:44.119Z,2.70
2018-12-31T06:40:31.921Z,2.63
2018-12-31T06:43:19.066Z,2.80
2018-12-31T06:46:22.032Z,2.70
2018-12-31T06:49:09.386Z,2.47
2018-12-31T06:51:56.791Z,2.83
2018-12-31T06:54:44.152Z,3.40
2018-12-31T06:57:31.329Z,3.60
2018-12-31T07:00:18.715Z,3.00
2018-12-31T07:03:06.236Z,3.07
2018-12-31T07:05:53.789Z,3.55
2018-12-31T07:08:41.081Z,2.83
2018-12-31T07:11:28.546Z,3.50
2018-12-31T07:14:16.072Z,2.83
2018-12-31T07:17:03.267Z,2.90
2018-12-31T07:19:50.405Z,3.07
2018-12-31T07:22:38.034Z,3.95
2018-12-31T07:25:25.677Z,3.63
2018-12-31T07:28:12.828Z,3.63
2018-12-31T07:30:59.961Z,5.25
2018-12-31T07:33:47.119Z,6.40
2018-12-31T07:36:35.369Z,5.87
2018-12-31T07:39:24.206Z,7.20
2018-12-31T07:42:13.893Z,5.77
2018-12-31T07:45:01.107Z,6.13
2018-12-31T07:47:48.533Z,7.43
2018-12-31T07:50:38.879Z,6.93
2018-12-31T07:53:26.042Z,6.17
2018-12-31T07:56:13.401Z,6.33
2018-12-31T07:59:00.739Z,6.43
2018-12-31T08:01:47.949Z,6.97
2018-12-31T08:04:35.317Z,6.50
2018-12-31T08:07:23.664Z,7.37
2018-12-31T08:10:11.063Z,7.30
2018-12-31T08:12:58.203Z,7.43
2018-12-31T08:15:45.256Z,6.70
2018-12-31T08:18:32.984Z,7.60
2018-12-31T08:21:20.299Z,9.70
2018-12-31T08:24:07.788Z,8.13
2018-12-31T08:26:54.966Z,7.10
2018-12-31T08:29:42.395Z,7.23
2018-12-31T08:32:29.514Z,6.70
2018-12-31T08:35:16.531Z,6.43
2018-12-31T08:38:03.816Z,7.40
2018-12-31T08:40:50.898Z,6.90
2018-12-31T08:43:40.841Z,6.47
2018-12-31T08:46:28.054Z,6.77
2018-12-31T08:49:15.425Z,6.57
2018-12-31T08:52:02.823Z,6.70
2018-12-31T08:54:50.435Z,6.33
2018-12-31T08:57:38.874Z,6.30
2018-12-31T09:00:28.104Z,8.43
2018-12-31T09:03:16.074Z,6.30
2018-12-31T09:06:04.461Z,8.15
2018-12-31T09:08:51.987Z,7.67
2018-12-31T09:11:39.567Z,6.50
2018-12-31T09:14:27.080Z,7.37
2018-12-31T09:17:15.212Z,7.03
2018-12-31T09:23:14.713Z,7.13
2018-12-31T09:29:09.574Z,7.43
2018-12-31T09:31:56.983Z,9.98
2018-12-31T09:34:44.634Z,10.15
2018-12-31T09:37:32.095Z,8.17
2018-12-31T09:40:24.819Z,8.50
2018-12-31T09:43:12.387Z,8.90
2018-12-31T09:45:59.839Z,8.50
2018-12-31T09:48:47.357Z,10.17
2018-12-31T09:51:34.652Z,10.90
2018-12-31T09:54:21.911Z,11.03
2018-12-31T09:57:09.598Z,10.87
2018-12-31T10:03:02.759Z,12.93
2018-12-31T10:05:50.328Z,13.50
2018-12-31T10:08:37.657Z,13.93
2018-12-31T10:11:24.894Z,14.50
2018-12-31T10:14:12.344Z,16.60
2018-12-31T10:16:59.533Z,16.83
2018-12-31T10:19:47.065Z,17.07
2018-12-31T10:22:34.094Z,16.53
2018-12-31T10:25:30.055Z,16.73
2018-12-31T10:28:17.409Z,16.97
2018-12-31T10:31:04.593Z,17.70
2018-12-31T10:33:51.727Z,17.93
2018-12-31T10:36:39.174Z,17.87
2018-12-31T10:39:26.291Z,19.03
2018-12-31T10:42:13.986Z,18.10
2018-12-31T10:45:01.506Z,19.27
2018-12-31T10:47:49.191Z,20.23
2018-12-31T10:50:36.531Z,21.53
2018-12-31T10:53:24.040Z,18.87
2018-12-31T10:56:13.268Z,18.80
2018-12-31T10:59:00.446Z,18.13
2018-12-31T11:01:55.404Z,17.33
2018-12-31T11:04:48.173Z,17.53
2018-12-31T11:07:36.308Z,17.13
2018-12-31T11:10:24.553Z,20.98
2018-12-31T11:16:19.576Z,17.55
2018-12-31T11:19:08.155Z,16.03
2018-12-31T11:21:55.677Z,15.57
2018-12-31T11:24:42.953Z,17.25
2018-12-31T11:27:31.724Z,19.83
2018-12-31T11:30:22.044Z,16.77
2018-12-31T11:33:09.690Z,18.87
2018-12-31T11:39:04.241Z,15.60
2018-12-31T11:41:54.130Z,14.52
2018-12-31T11:44:41.607Z,13.53
2018-12-31T11:47:30.690Z,10.07
2018-12-31T11:50:18.150Z,13.35
2018-12-31T11:53:05.292Z,12.85
2018-12-31T11:56:06.234Z,13.60
2018-12-31T11:58:54.778Z,12.80
2018-12-31T12:01:42.207Z,13.38
2018-12-31T12:04:30.201Z,12.10
2018-12-31T12:07:17.690Z,12.55
2018-12-31T12:10:07.308Z,12.63
2018-12-31T12:12:52.224Z,11.77
2018-12-31T12:15:41.617Z,11.93
2018-12-31T12:18:30.574Z,11.63
2018-12-31T12:21:19.622Z,12.57
2018-12-31T12:24:07.488Z,12.23
2018-12-31T12:26:55.122Z,11.30
2018-12-31T12:29:44.055Z,12.27
2018-12-31T12:32:31.463Z,12.00
2018-12-31T12:35:18.913Z,12.07
2018-12-31T12:38:06.246Z,11.20
2018-12-31T12:41:01.605Z,11.43
2018-12-31T12:43:49.152Z,11.40
2018-12-31T12:46:37.395Z,11.40
2018-12-31T12:49:32.574Z,10.80
2018-12-31T12:52:20.325Z,11.40
2018-12-31T12:55:07.567Z,10.73
2018-12-31T12:57:55.273Z,11.97
2018-12-31T13:00:42.673Z,13.30
2018-12-31T13:03:29.995Z,16.90
2018-12-31T13:06:17.450Z,11.70
2018-12-31T13:09:09.474Z,11.20
2018-12-31T13:11:58.546Z,12.37
2018-12-31T13:14:46.073Z,11.45
2018-12-31T13:17:34.928Z,11.68
2018-12-31T13:23:31.578Z,10.18
2018-12-31T13:26:19.466Z,12.88
2018-12-31T13:29:06.968Z,10.75
2018-12-31T13:31:54.418Z,11.48
2018-12-31T13:34:41.989Z,10.30
2018-12-31T13:37:31.610Z,9.60
2018-12-31T13:40:19.843Z,12.50
2018-12-31T13:46:14.357Z,11.73
2018-12-31T13:49:02.865Z,13.70
2018-12-31T13:51:50.378Z,11.75
2018-12-31T13:54:38.042Z,11.37
2018-12-31T14:00:32.220Z,13.27
2018-12-31T14:03:20.587Z,12.70
2018-12-31T14:12:21.306Z,18.83
2018-12-31T14:15:12.754Z,15.40
2018-12-31T14:18:02.566Z,13.90
2018-12-31T14:20:52.345Z,13.50
2018-12-31T14:23:39.783Z,14.00
2018-12-31T14:26:31.134Z,13.23
2018-12-31T14:29:19.327Z,14.63
2018-12-31T14:32:07.178Z,14.20
2018-12-31T14:34:56.698Z,15.10
2018-12-31T14:37:43.921Z,12.07
2018-12-31T14:40:33.179Z,11.97
2018-12-31T14:43:23.763Z,11.73
2018-12-31T14:46:14.974Z,10.80
2018-12-31T14:49:05.329Z,12.40
2018-12-31T14:55:05.595Z,11.87
2018-12-31T14:57:55.883Z,13.73
2018-12-31T15:00:44.205Z,12.53
2018-12-31T15:03:38.890Z,11.37
2018-12-31T15:06:30.326Z,9.10
2018-12-31T15:09:17.696Z,8.43
2018-12-31T15:12:16.836Z,8.33
2018-12-31T15:15:04.903Z,8.87
2018-12-31T15:18:02.265Z,7.93
2018-12-31T15:20:53.780Z,7.13
2018-12-31T15:23:41.316Z,8.00
2018-12-31T15:26:29.683Z,8.30
2018-12-31T15:29:17.250Z,8.27
2018-12-31T15:32:05.576Z,9.23
2018-12-31T15:34:53.105Z,9.77
2018-12-31T15:37:40.889Z,9.43
2018-12-31T15:43:34.769Z,10.23
2018-12-31T15:46:24.036Z,9.63
2018-12-31T15:49:12.016Z,11.80
2018-12-31T15:51:59.513Z,14.13
2018-12-31T15:54:51.616Z,11.43
2018-12-31T15:57:38.907Z,11.83
2018-12-31T16:00:25.846Z,12.73
2018-12-31T16:03:13.671Z,15.80
2018-12-31T16:06:01.367Z,16.23
2018-12-31T16:08:54.930Z,14.33
2018-12-31T16:11:42.355Z,14.00
2018-12-31T16:14:29.801Z,12.73
2018-12-31T16:17:18.904Z,9.33
2018-12-31T16:20:06.571Z,10.00
2018-12-31T16:22:54.040Z,8.23
2018-12-31T16:25:42.485Z,12.88
2018-12-31T16:28:30.349Z,10.87
2018-12-31T16:31:18.049Z,10.17
2018-12-31T16:34:12.950Z,9.60
2018-12-31T16:37:01.349Z,7.90
2018-12-31T16:39:48.658Z,7.63
2018-12-31T16:42:35.813Z,9.23
2018-12-31T16:45:40.839Z,9.63
2018-12-31T16:48:28.164Z,10.07
2018-12-31T16:51:16.075Z,10.20
2018-12-31T16:54:05.671Z,10.07
2018-12-31T16:56:52.603Z,10.87
2018-12-31T16:59:39.842Z,18.08
2018-12-31T17:02:28.145Z,20.08
2018-12-31T17:05:15.627Z,12.83
2018-12-31T17:08:02.870Z,14.73
2018-12-31T17:10:50.682Z,12.77
2018-12-31T17:13:38.382Z,15.13
2018-12-31T17:16:25.497Z,11.80
2018-12-31T17:19:13.293Z,11.03
2018-12-31T17:22:01.632Z,14.30
2018-12-31T17:24:51.310Z,13.10
2018-12-31T17:27:39.153Z,15.63
2018-12-31T17:30:28.773Z,16.80
2018-12-31T17:33:17.273Z,15.17
2018-12-31T17:39:11.338Z,18.83
2018-12-31T17:41:58.847Z,25.10
2018-12-31T17:44:46.272Z,28.37
2018-12-31T17:47:33.566Z,16.80
2018-12-31T17:50:21.372Z,12.90
2018-12-31T17:53:27.274Z,9.87
2018-12-31T17:56:15.501Z,9.00
2018-12-31T17:59:02.683Z,7.67
2018-12-31T18:01:50.461Z,8.47
2018-12-31T18:04:37.903Z,10.73
2018-12-31T18:07:25.705Z,9.00
2018-12-31T18:10:13.652Z,8.00
2018-12-31T18:13:01.049Z,14.63
2018-12-31T18:15:49.222Z,16.70
2018-12-31T18:18:36.592Z,17.65
2018-12-31T18:21:26.837Z,12.83
2018-12-31T18:24:15.387Z,13.57
2018-12-31T18:27:03.424Z,17.27
2018-12-31T18:29:50.947Z,14.70
2018-12-31T18:32:38.346Z,15.60
2018-12-31T18:35:25.545Z,13.67
2018-12-31T18:38:12.972Z,9.83
2018-12-31T18:41:00.521Z,13.93
2018-12-31T18:43:48.861Z,12.50
2018-12-31T18:46:37.383Z,14.90
2018-12-31T18:49:24.915Z,19.17
2018-12-31T18:52:12.068Z,17.53
2018-12-31T18:55:01.821Z,15.03
2018-12-31T18:57:49.373Z,16.90
2018-12-31T19:00:36.795Z,18.17
2018-12-31T19:03:24.861Z,21.03
2018-12-31T19:06:12.553Z,20.77
2018-12-31T19:09:00.046Z,39.67
2018-12-31T19:14:53.534Z,35.07
2018-12-31T19:20:49.449Z,51.03
2018-12-31T19:23:37.693Z,39.23
2018-12-31T19:26:28.806Z,29.30
2018-12-31T19:32:22.433Z,20.03
2018-12-31T19:35:10.819Z,29.87
2018-12-31T19:37:58.986Z,37.30
2018-12-31T19:40:48.771Z,30.83
2018-12-31T19:43:37.144Z,35.03
2018-12-31T19:46:24.348Z,78.77
2018-12-31T19:49:13.638Z,68.67
2018-12-31T19:52:00.977Z,41.70
2018-12-31T19:54:48.456Z,30.40
2018-12-31T19:57:36.167Z,24.67
2018-12-31T20:03:32.636Z,23.13
2018-12-31T20:06:20.514Z,29.30
2018-12-31T20:09:08.433Z,36.83
2018-12-31T20:11:56.444Z,33.77
2018-12-31T20:14:44.915Z,35.23
2018-12-31T20:17:32.208Z,47.43
2018-12-31T20:20:19.937Z,41.07
2018-12-31T20:23:06.995Z,29.20
2018-12-31T20:25:54.296Z,36.47
2018-12-31T20:28:41.817Z,26.03
2018-12-31T20:31:29.142Z,25.73
2018-12-31T20:34:17.587Z,26.53
2018-12-31T20:37:04.746Z,25.40
2018-12-31T20:39:52.129Z,22.63
2018-12-31T20:42:39.340Z,19.93
2018-12-31T20:45:27.682Z,21.97
2018-12-31T20:48:15.282Z,21.73
2018-12-31T20:51:02.411Z,27.00
2018-12-31T20:53:49.844Z,27.33
2018-12-31T20:56:37.258Z,33.30
2018-12-31T20:59:24.710Z,26.40
2018-12-31T21:02:12.031Z,24.87
2018-12-31T21:04:59.884Z,26.10
2018-12-31T21:07:47.558Z,26.80
2018-12-31T21:10:34.837Z,24.10
2018-12-31T21:13:21.687Z,32.67
2018-12-31T21:16:09.788Z,30.77
2018-12-31T21:18:57.926Z,23.90
2018-12-31T21:21:45.409Z,23.07
2018-12-31T21:24:38.281Z,20.47
2018-12-31T21:27:41.341Z,21.97
2018-12-31T21:30:28.533Z,21.73
2018-12-31T21:33:15.955Z,21.90
2018-12-31T21:36:03.279Z,22.70
2018-12-31T21:38:50.906Z,22.93
2018-12-31T21:41:38.223Z,23.97
2018-12-31T21:44:25.457Z,24.47
2018-12-31T21:47:13.059Z,32.03
2018-12-31T21:50:00.583Z,26.80
2018-12-31T21:52:49.098Z,25.90
2018-12-31T21:55:36.886Z,25.20
2018-12-31T21:58:24.257Z,26.10
2018-12-31T22:01:11.525Z,26.60
2018-12-31T22:03:58.989Z,27.97
2018-12-31T22:06:53.997Z,27.40
2018-12-31T22:09:41.581Z,27.27
2018-12-31T22:12:28.889Z,33.80
2018-12-31T22:15:16.221Z,88.25
2018-12-31T22:18:03.838Z,81.78
2018-12-31T22:20:51.078Z,44.33
2018-12-31T22:23:38.477Z,44.43
2018-12-31T22:26:25.999Z,35.83
2018-12-31T22:29:13.219Z,33.47
2018-12-31T22:32:00.742Z,33.63
2018-12-31T22:34:48.369Z,32.00
2018-12-31T22:37:35.674Z,29.63
2018-12-31T22:40:23.845Z,38.93
2018-12-31T22:43:11.190Z,44.43
2018-12-31T22:45:58.377Z,42.40
2018-12-31T22:48:45.745Z,27.47
2018-12-31T22:51:34.485Z,23.03
2018-12-31T22:54:24.250Z,17.80
2018-12-31T22:57:11.619Z,16.43
2018-12-31T23:00:00.152Z,14.50
2018-12-31T23:02:47.595Z,14.20
2018-12-31T23:05:35.132Z,12.73
2018-12-31T23:11:29.781Z,91.13
2018-12-31T23:14:18.026Z,95.50
2018-12-31T23:17:05.719Z,132.53
2018-12-31T23:19:53.185Z,74.27
2018-12-31T23:22:40.537Z,80.37
2018-12-31T23:25:27.561Z,167.87
2018-12-31T23:28:14.730Z,102.60
2018-12-31T23:31:02.002Z,65.60
2018-12-31T23:33:49.078Z,99.57
2018-12-31T23:36:36.237Z,60.57
2018-12-31T23:39:23.743Z,45.42
2018-12-31T23:42:19.214Z,42.47
2018-12-31T23:45:06.180Z,37.43
2018-12-31T23:47:53.950Z,36.43
2018-12-31T23:50:41.339Z,45.27
2018-12-31T23:53:44.254Z,47.20
2018-12-31T23:56:31.730Z,62.20
